createdAt,value
2018-12-31T00:01:07.734Z,34.60
2018-12-31T00:03:37.234Z,33.67
2018-12-31T00:06:06.687Z,33.50
2018-12-31T00:08:37.486Z,32.90
2018-12-31T00:11:08.592Z,31.87
2018-12-31T00:13:38.202Z,36.40
2018-12-31T00:16:07.719Z,32.30
2018-12-31T00:18:37.832Z,33.03
2018-12-31T00:21:07.642Z,35.20
2018-12-31T00:23:37.062Z,32.83
2018-12-31T00:26:06.637Z,31.13
2018-12-31T00:28:36.251Z,30.87
2018-12-31T00:31:05.955Z,33.47
2018-12-31T00:33:35.481Z,30.53
2018-12-31T00:36:05.023Z,30.93
2018-12-31T00:38:34.654Z,30.60
2018-12-31T00:41:04.290Z,31.77
2018-12-31T00:43:33.936Z,31.70
2018-12-31T00:46:03.524Z,31.20
2018-12-31T00:48:37.115Z,31.87
2018-12-31T00:51:07.152Z,31.43
2018-12-31T00:53:37.186Z,31.53
2018-12-31T00:56:08.381Z,33.07
2018-12-31T00:58:37.825Z,30.73
2018-12-31T01:01:09.752Z,30.87
2018-12-31T01:03:40.937Z,30.40
2018-12-31T01:06:10.325Z,31.23
2018-12-31T01:08:41.224Z,30.60
2018-12-31T01:11:10.681Z,30.53
2018-12-31T01:13:41.355Z,29.70
2018-12-31T01:16:11.810Z,30.27
2018-12-31T01:18:41.258Z,29.67
2018-12-31T01:21:10.802Z,30.00
2018-12-31T01:23:40.234Z,30.00
2018-12-31T01:26:09.772Z,31.83
2018-12-31T01:28:39.240Z,29.30
2018-12-31T01:31:09.858Z,30.90
2018-12-31T01:33:42.688Z,29.47
2018-12-31T01:36:12.152Z,29.67
2018-12-31T01:38:41.665Z,27.77
2018-12-31T01:41:11.296Z,29.73
2018-12-31T01:43:42.764Z,29.90
2018-12-31T01:46:12.262Z,29.07
2018-12-31T01:48:41.712Z,30.20
2018-12-31T01:51:11.563Z,31.83
2018-12-31T01:53:41.105Z,28.13
2018-12-31T01:56:10.925Z,29.07
2018-12-31T01:58:40.519Z,28.00
2018-12-31T02:01:09.972Z,28.43
2018-12-31T02:03:39.507Z,27.70
2018-12-31T02:06:10.143Z,27.43
2018-12-31T02:08:39.580Z,26.60
2018-12-31T02:11:09.073Z,26.10
2018-12-31T02:13:38.519Z,27.93
2018-12-31T02:16:07.905Z,25.97
2018-12-31T02:18:37.369Z,27.33
2018-12-31T02:21:09.050Z,26.50
2018-12-31T02:23:38.458Z,27.73
2018-12-31T02:26:09.224Z,26.33
2018-12-31T02:28:38.680Z,26.33
2018-12-31T02:31:08.308Z,28.37
2018-12-31T02:33:38.010Z,28.73
2018-12-31T02:36:07.559Z,27.93
2018-12-31T02:38:37.061Z,28.77
2018-12-31T02:41:06.515Z,27.00
2018-12-31T02:43:37.267Z,25.80
2018-12-31T02:46:06.765Z,27.23
2018-12-31T02:48:36.308Z,26.87
2018-12-31T02:51:05.757Z,25.67
2018-12-31T02:53:35.221Z,25.87
2018-12-31T02:56:05.939Z,26.97
2018-12-31T02:58:35.470Z,25.77
2018-12-31T03:01:04.988Z,25.20
2018-12-31T03:03:42.815Z,23.47
2018-12-31T03:06:12.328Z,24.67
2018-12-31T03:08:41.783Z,23.23
2018-12-31T03:11:12.812Z,24.03
2018-12-31T03:13:42.311Z,23.80
2018-12-31T03:16:11.970Z,24.20
2018-12-31T03:18:41.555Z,25.57
2018-12-31T03:21:10.945Z,23.57
2018-12-31T03:23:42.729Z,23.63
2018-12-31T03:26:19.759Z,22.93
2018-12-31T03:28:49.715Z,22.93
2018-12-31T03:31:19.441Z,22.87
2018-12-31T03:33:50.547Z,22.13
2018-12-31T03:36:21.085Z,23.23
2018-12-31T03:38:54.650Z,23.20
2018-12-31T03:41:21.599Z,20.63
2018-12-31T03:43:51.181Z,22.37
2018-12-31T03:46:20.549Z,22.07
2018-12-31T03:48:52.766Z,22.23
2018-12-31T03:51:22.252Z,21.03
2018-12-31T03:53:51.826Z,22.03
2018-12-31T03:56:21.354Z,22.40
2018-12-31T03:58:51.980Z,22.10
2018-12-31T04:01:21.525Z,23.87
2018-12-31T04:03:51.034Z,22.67
2018-12-31T04:06:24.563Z,21.90
2018-12-31T04:08:54.100Z,21.03
2018-12-31T04:11:23.550Z,20.70
2018-12-31T04:13:52.978Z,22.00
2018-12-31T04:16:22.475Z,21.57
2018-12-31T04:18:51.961Z,21.33
2018-12-31T04:21:21.752Z,22.33
2018-12-31T04:23:51.198Z,21.10
2018-12-31T04:26:20.609Z,22.07
2018-12-31T04:28:50.047Z,22.53
2018-12-31T04:31:19.542Z,22.53
2018-12-31T04:33:49.088Z,20.30
2018-12-31T04:36:18.529Z,21.20
2018-12-31T04:38:47.975Z,21.27
2018-12-31T04:41:17.468Z,21.30
2018-12-31T04:43:46.917Z,20.10
2018-12-31T04:46:17.862Z,21.13
2018-12-31T04:48:47.335Z,22.30
2018-12-31T04:51:16.774Z,20.77
2018-12-31T04:53:46.164Z,20.33
2018-12-31T04:56:15.587Z,21.17
2018-12-31T04:58:45.319Z,20.33
2018-12-31T05:01:14.825Z,19.97
2018-12-31T05:03:44.280Z,20.33
2018-12-31T05:06:13.731Z,20.57
2018-12-31T05:08:43.193Z,19.27
2018-12-31T05:11:12.665Z,20.63
2018-12-31T05:13:42.097Z,20.30
2018-12-31T05:16:11.598Z,19.50
2018-12-31T05:18:41.004Z,20.37
2018-12-31T05:21:10.438Z,18.67
2018-12-31T05:23:39.976Z,19.57
2018-12-31T05:26:09.320Z,18.27
2018-12-31T05:28:38.630Z,19.60
2018-12-31T05:31:08.023Z,19.93
2018-12-31T05:33:37.489Z,18.80
2018-12-31T05:36:06.986Z,19.40
2018-12-31T05:38:36.399Z,19.13
2018-12-31T05:41:05.801Z,19.47
2018-12-31T05:43:35.160Z,18.73
2018-12-31T05:46:04.465Z,18.53
2018-12-31T05:48:33.913Z,18.43
2018-12-31T05:51:03.355Z,18.47
2018-12-31T05:53:32.805Z,18.73
2018-12-31T05:56:02.189Z,18.70
2018-12-31T05:58:31.601Z,19.43
2018-12-31T06:01:01.005Z,17.70
2018-12-31T06:03:30.467Z,18.17
2018-12-31T06:05:59.955Z,18.17
2018-12-31T06:08:30.537Z,17.87
2018-12-31T06:11:00.054Z,19.13
2018-12-31T06:13:29.542Z,17.53
2018-12-31T06:15:58.962Z,16.50
2018-12-31T06:18:28.378Z,18.90
2018-12-31T06:20:58.056Z,16.73
2018-12-31T06:23:27.475Z,17.00
2018-12-31T06:25:56.894Z,19.97
2018-12-31T06:28:26.352Z,17.23
2018-12-31T06:30:55.774Z,17.43
2018-12-31T06:33:25.261Z,17.20
2018-12-31T06:35:54.663Z,16.57
2018-12-31T06:38:24.218Z,16.30
2018-12-31T06:40:53.689Z,15.83
2018-12-31T06:43:23.045Z,15.60
2018-12-31T06:45:52.489Z,16.97
2018-12-31T06:48:21.928Z,14.67
2018-12-31T06:50:52.368Z,16.20
2018-12-31T06:53:21.824Z,15.33
2018-12-31T06:55:54.259Z,15.33
2018-12-31T06:58:25.389Z,16.90
2018-12-31T07:00:54.979Z,17.03
2018-12-31T07:03:24.476Z,15.10
2018-12-31T07:05:53.844Z,14.93
2018-12-31T07:08:23.186Z,14.50
2018-12-31T07:10:53.864Z,18.20
2018-12-31T07:13:23.251Z,13.87
2018-12-31T07:15:52.735Z,14.47
2018-12-31T07:18:22.398Z,13.27
2018-12-31T07:20:51.801Z,13.33
2018-12-31T07:23:23.306Z,13.90
2018-12-31T07:25:52.685Z,15.70
2018-12-31T07:28:24.613Z,14.60
2018-12-31T07:30:53.992Z,21.20
2018-12-31T07:33:23.615Z,19.35
2018-12-31T07:35:53.106Z,13.77
2018-12-31T07:38:22.594Z,12.77
2018-12-31T07:40:52.028Z,11.50
2018-12-31T07:43:21.418Z,11.50
2018-12-31T07:45:50.866Z,11.07
2018-12-31T07:48:20.294Z,12.27
2018-12-31T07:50:49.738Z,12.17
2018-12-31T07:53:19.177Z,12.07
2018-12-31T07:55:48.627Z,11.80
2018-12-31T07:58:18.264Z,12.23
2018-12-31T08:00:47.808Z,11.43
2018-12-31T08:03:17.540Z,10.30
2018-12-31T08:05:46.984Z,11.03
2018-12-31T08:08:16.422Z,10.43
2018-12-31T08:10:45.934Z,9.90
2018-12-31T08:13:15.469Z,10.50
2018-12-31T08:15:45.004Z,9.80
2018-12-31T08:18:14.418Z,9.47
2018-12-31T08:20:43.743Z,9.50
2018-12-31T08:23:13.145Z,9.87
2018-12-31T08:25:42.594Z,10.10
2018-12-31T08:28:12.194Z,10.03
2018-12-31T08:30:41.554Z,9.97
2018-12-31T08:33:10.982Z,9.67
2018-12-31T08:35:40.313Z,10.50
2018-12-31T08:38:09.694Z,12.10
2018-12-31T08:40:39.198Z,11.33
2018-12-31T08:43:08.973Z,9.83
2018-12-31T08:45:38.411Z,12.70
2018-12-31T08:48:07.870Z,10.53
2018-12-31T08:50:37.359Z,9.70
2018-12-31T08:53:06.848Z,8.73
2018-12-31T08:55:38.203Z,7.83
2018-12-31T08:58:07.319Z,8.00
2018-12-31T09:00:37.584Z,8.57
2018-12-31T09:03:07.979Z,8.27
2018-12-31T09:06:03.054Z,9.30
2018-12-31T09:08:32.574Z,8.60
2018-12-31T09:11:01.905Z,7.50
2018-12-31T09:13:31.558Z,8.00
2018-12-31T09:16:00.998Z,8.23
2018-12-31T09:18:30.503Z,7.80
2018-12-31T09:20:59.899Z,9.10
2018-12-31T09:23:29.364Z,8.97
2018-12-31T09:25:59.178Z,8.60
2018-12-31T09:28:28.648Z,8.30
2018-12-31T09:30:58.191Z,8.10
2018-12-31T09:33:27.667Z,8.57
2018-12-31T09:35:57.291Z,8.97
2018-12-31T09:38:26.728Z,8.10
2018-12-31T09:40:56.394Z,8.73
2018-12-31T09:43:25.963Z,8.93
2018-12-31T09:45:55.378Z,8.73
2018-12-31T09:48:24.806Z,8.10
2018-12-31T09:50:54.289Z,8.83
2018-12-31T09:53:23.784Z,8.30
2018-12-31T09:55:53.231Z,8.13
2018-12-31T09:58:22.734Z,8.80
2018-12-31T10:00:52.153Z,9.37
2018-12-31T10:03:21.569Z,9.83
2018-12-31T10:05:51.057Z,9.83
2018-12-31T10:08:20.850Z,10.93
2018-12-31T10:10:50.265Z,9.87
2018-12-31T10:13:19.690Z,10.67
2018-12-31T10:15:49.155Z,9.80
2018-12-31T10:18:18.613Z,9.00
2018-12-31T10:20:48.202Z,9.40
2018-12-31T10:23:17.570Z,10.23
2018-12-31T10:25:46.942Z,11.13
2018-12-31T10:28:16.373Z,10.23
2018-12-31T10:30:45.746Z,11.07
2018-12-31T10:33:15.255Z,9.90
2018-12-31T10:35:44.644Z,10.30
2018-12-31T10:38:14.017Z,10.60
2018-12-31T10:40:43.408Z,11.20
2018-12-31T10:43:12.870Z,12.27
2018-12-31T10:45:42.275Z,12.00
2018-12-31T10:48:11.770Z,11.83
2018-12-31T10:50:41.224Z,13.17
2018-12-31T10:53:10.681Z,12.90
2018-12-31T10:55:40.062Z,14.30
2018-12-31T10:58:09.537Z,12.87
2018-12-31T11:00:38.966Z,13.27
2018-12-31T11:03:08.554Z,13.20
2018-12-31T11:05:37.998Z,13.10
2018-12-31T11:08:07.425Z,11.83
2018-12-31T11:10:36.988Z,11.17
2018-12-31T11:13:06.436Z,11.23
2018-12-31T11:15:35.875Z,11.20
2018-12-31T11:18:05.267Z,11.00
2018-12-31T11:20:34.635Z,11.47
2018-12-31T11:23:04.043Z,10.27
2018-12-31T11:25:33.548Z,9.00
2018-12-31T11:28:02.966Z,11.47
2018-12-31T11:30:32.348Z,10.93
2018-12-31T11:33:01.836Z,9.33
2018-12-31T11:35:31.298Z,9.90
2018-12-31T11:38:00.854Z,9.97
2018-12-31T11:40:30.266Z,9.47
2018-12-31T11:42:59.731Z,9.17
2018-12-31T11:45:29.226Z,9.07
2018-12-31T11:47:58.642Z,8.10
2018-12-31T11:50:28.044Z,8.13
2018-12-31T11:53:01.141Z,8.67
2018-12-31T11:55:30.730Z,8.90
2018-12-31T11:58:00.172Z,8.70
2018-12-31T12:00:31.771Z,9.67
2018-12-31T12:03:02.314Z,13.20
2018-12-31T12:05:31.855Z,13.83
2018-12-31T12:08:01.342Z,10.97
2018-12-31T12:10:30.730Z,9.33
2018-12-31T12:13:00.162Z,9.50
2018-12-31T12:15:29.593Z,8.70
2018-12-31T12:17:59.293Z,8.90
2018-12-31T12:20:28.982Z,7.77
2018-12-31T12:22:58.397Z,8.63
2018-12-31T12:25:27.841Z,8.57
2018-12-31T12:27:57.265Z,8.40
2018-12-31T12:30:27.080Z,8.93
2018-12-31T12:32:56.532Z,9.10
2018-12-31T12:35:26.013Z,8.47
2018-12-31T12:37:55.446Z,8.17
2018-12-31T12:40:25.357Z,8.20
2018-12-31T12:42:56.649Z,8.60
2018-12-31T12:45:26.066Z,9.57
2018-12-31T12:47:57.958Z,10.77
2018-12-31T12:50:27.369Z,10.60
2018-12-31T12:52:57.084Z,12.13
2018-12-31T12:55:26.454Z,11.87
2018-12-31T12:57:55.863Z,10.93
2018-12-31T13:00:25.279Z,9.87
2018-12-31T13:02:54.744Z,11.00
2018-12-31T13:05:24.482Z,10.67
2018-12-31T13:07:53.912Z,12.03
2018-12-31T13:10:23.374Z,11.63
2018-12-31T13:12:57.611Z,12.77
2018-12-31T13:15:27.140Z,12.47
2018-12-31T13:17:56.546Z,13.23
2018-12-31T13:20:25.988Z,12.77
2018-12-31T13:22:55.430Z,14.27
2018-12-31T13:25:24.869Z,14.03
2018-12-31T13:27:54.546Z,14.33
2018-12-31T13:30:24.038Z,14.60
2018-12-31T13:32:53.489Z,17.10
2018-12-31T13:35:23.351Z,19.70
2018-12-31T13:37:52.822Z,18.67
2018-12-31T13:40:22.661Z,17.50
2018-12-31T13:42:52.128Z,17.70
2018-12-31T13:45:21.549Z,18.30
2018-12-31T13:47:51.028Z,19.40
2018-12-31T13:50:20.457Z,18.07
2018-12-31T13:52:50.018Z,19.40
2018-12-31T13:55:19.466Z,20.37
2018-12-31T13:57:48.872Z,18.73
2018-12-31T14:00:18.341Z,19.30
2018-12-31T14:02:47.775Z,20.17
2018-12-31T14:05:17.919Z,19.10
2018-12-31T14:07:47.347Z,19.40
2018-12-31T14:10:16.706Z,21.67
2018-12-31T14:12:46.129Z,19.13
2018-12-31T14:15:15.558Z,20.27
2018-12-31T14:17:45.004Z,19.47
2018-12-31T14:20:14.453Z,18.10
2018-12-31T14:22:43.969Z,18.77
2018-12-31T14:25:13.428Z,18.53
2018-12-31T14:27:43.209Z,17.80
2018-12-31T14:30:12.671Z,17.90
2018-12-31T14:32:42.109Z,17.57
2018-12-31T14:35:11.601Z,18.27
2018-12-31T14:37:41.083Z,18.60
2018-12-31T14:40:13.107Z,17.40
2018-12-31T14:42:42.671Z,16.83
2018-12-31T14:45:12.090Z,18.53
2018-12-31T14:47:41.493Z,21.40
2018-12-31T14:50:10.939Z,17.40
2018-12-31T14:52:40.364Z,18.00
2018-12-31T14:55:09.808Z,18.97
2018-12-31T14:57:39.338Z,18.77
2018-12-31T15:00:11.111Z,18.03
2018-12-31T15:02:40.843Z,17.53
2018-12-31T15:05:10.525Z,16.87
2018-12-31T15:07:40.030Z,18.47
2018-12-31T15:10:09.797Z,18.77
2018-12-31T15:12:39.222Z,18.17
2018-12-31T15:15:12.049Z,16.93
2018-12-31T15:17:41.520Z,18.90
2018-12-31T15:20:11.292Z,16.60
2018-12-31T15:22:40.761Z,18.77
2018-12-31T15:25:10.232Z,20.10
2018-12-31T15:27:39.702Z,25.87
2018-12-31T15:30:09.484Z,35.40
2018-12-31T15:32:38.950Z,23.00
2018-12-31T15:35:08.679Z,23.10
2018-12-31T15:37:38.129Z,19.30
2018-12-31T15:40:08.727Z,21.23
2018-12-31T15:42:38.266Z,20.23
2018-12-31T15:45:08.593Z,20.90
2018-12-31T15:47:38.105Z,21.63
2018-12-31T15:50:08.877Z,22.77
2018-12-31T15:52:38.404Z,24.47
2018-12-31T15:55:08.047Z,27.50
2018-12-31T15:57:37.570Z,24.90
2018-12-31T16:00:09.077Z,32.27
2018-12-31T16:02:38.539Z,30.43
2018-12-31T16:05:08.778Z,21.17
2018-12-31T16:07:45.337Z,18.50
2018-12-31T16:10:09.625Z,21.80
2018-12-31T16:12:39.089Z,22.70
2018-12-31T16:15:09.600Z,26.73
2018-12-31T16:17:39.201Z,25.30
2018-12-31T16:20:08.774Z,26.43
2018-12-31T16:22:38.399Z,25.60
2018-12-31T16:25:08.242Z,20.90
2018-12-31T16:27:37.723Z,29.73
2018-12-31T16:30:07.942Z,34.20
2018-12-31T16:32:37.502Z,27.90
2018-12-31T16:35:07.053Z,28.00
2018-12-31T16:37:36.779Z,25.13
2018-12-31T16:40:06.894Z,22.13
2018-12-31T16:42:39.363Z,23.60
2018-12-31T16:45:09.096Z,23.30
2018-12-31T16:47:39.594Z,22.60
2018-12-31T16:50:09.261Z,21.60
2018-12-31T16:52:38.845Z,20.30
2018-12-31T16:55:08.463Z,19.20
2018-12-31T16:57:37.934Z,19.37
2018-12-31T17:00:07.798Z,16.77
2018-12-31T17:02:37.277Z,18.10
2018-12-31T17:05:07.302Z,18.43
2018-12-31T17:07:36.866Z,18.00
2018-12-31T17:10:07.837Z,19.07
2018-12-31T17:12:37.415Z,17.07
2018-12-31T17:15:07.082Z,18.83
2018-12-31T17:17:36.745Z,17.53
2018-12-31T17:20:06.709Z,18.17
2018-12-31T17:22:36.150Z,19.40
2018-12-31T17:25:06.039Z,19.27
2018-12-31T17:27:35.595Z,18.47
2018-12-31T17:30:05.805Z,20.53
2018-12-31T17:32:35.297Z,19.60
2018-12-31T17:35:05.224Z,18.40
2018-12-31T17:37:35.105Z,18.83
2018-12-31T17:40:04.760Z,18.33
2018-12-31T17:42:34.378Z,18.47
2018-12-31T17:45:04.103Z,17.47
2018-12-31T17:47:33.796Z,18.53
2018-12-31T17:50:03.600Z,21.85
2018-12-31T17:52:34.369Z,18.73
2018-12-31T17:55:04.100Z,20.57
2018-12-31T17:57:35.322Z,21.67
2018-12-31T18:00:06.070Z,23.13
2018-12-31T18:02:37.409Z,22.90
2018-12-31T18:05:07.100Z,23.07
2018-12-31T18:07:36.666Z,21.27
2018-12-31T18:10:07.581Z,22.77
2018-12-31T18:12:37.406Z,23.30
2018-12-31T18:15:06.896Z,29.13
2018-12-31T18:17:36.653Z,32.47
2018-12-31T18:20:07.302Z,31.30
2018-12-31T18:22:36.873Z,29.83
2018-12-31T18:25:06.465Z,28.00
2018-12-31T18:27:36.008Z,30.00
2018-12-31T18:30:06.108Z,30.37
2018-12-31T18:32:35.735Z,25.23
2018-12-31T18:35:05.333Z,25.30
2018-12-31T18:37:41.660Z,24.57
2018-12-31T18:40:06.424Z,26.17
2018-12-31T18:42:35.909Z,26.90
2018-12-31T18:45:05.530Z,30.83
2018-12-31T18:47:35.076Z,33.17
2018-12-31T18:50:05.050Z,33.53
2018-12-31T18:52:34.497Z,33.07
2018-12-31T18:55:04.060Z,36.60
2018-12-31T18:57:33.562Z,39.80
2018-12-31T19:00:03.044Z,51.13
2018-12-31T19:02:32.610Z,55.30
2018-12-31T19:05:02.140Z,57.87
2018-12-31T19:07:31.595Z,60.00
2018-12-31T19:10:01.145Z,56.10
2018-12-31T19:12:31.085Z,51.87
2018-12-31T19:15:00.813Z,51.00
2018-12-31T19:17:30.234Z,54.23
2018-12-31T19:19:59.719Z,49.10
2018-12-31T19:22:29.111Z,54.60
2018-12-31T19:24:58.903Z,40.30
2018-12-31T19:27:28.259Z,37.83
2018-12-31T19:29:57.706Z,40.73
2018-12-31T19:32:27.245Z,43.23
2018-12-31T19:34:56.721Z,40.53
2018-12-31T19:37:26.538Z,35.90
2018-12-31T19:39:55.978Z,35.90
2018-12-31T19:42:25.405Z,35.90
2018-12-31T19:44:54.917Z,32.50
2018-12-31T19:47:24.775Z,37.33
2018-12-31T19:49:54.510Z,45.07
2018-12-31T19:52:23.952Z,49.37
2018-12-31T19:54:53.425Z,48.10
2018-12-31T19:57:22.964Z,47.70
2018-12-31T19:59:52.465Z,41.40
2018-12-31T20:02:22.434Z,47.27
2018-12-31T20:04:51.904Z,39.50
2018-12-31T20:07:21.384Z,37.13
2018-12-31T20:09:50.858Z,35.80
2018-12-31T20:12:20.321Z,40.80
2018-12-31T20:14:50.041Z,39.20
2018-12-31T20:17:19.469Z,34.30
2018-12-31T20:19:52.069Z,32.67
2018-12-31T20:22:21.547Z,27.60
2018-12-31T20:24:50.996Z,24.33
2018-12-31T20:27:20.480Z,26.83
2018-12-31T20:29:49.918Z,26.13
2018-12-31T20:32:19.624Z,22.77
2018-12-31T20:34:49.162Z,24.73
2018-12-31T20:37:18.957Z,23.33
2018-12-31T20:39:48.900Z,26.03
2018-12-31T20:42:18.381Z,25.93
2018-12-31T20:44:47.830Z,24.70
2018-12-31T20:47:26.209Z,26.33
2018-12-31T20:49:55.718Z,23.90
2018-12-31T20:52:25.466Z,24.73
2018-12-31T20:54:54.923Z,24.57
2018-12-31T20:57:24.379Z,24.10
2018-12-31T20:59:53.863Z,21.57
2018-12-31T21:02:23.282Z,20.43
2018-12-31T21:04:53.217Z,20.70
2018-12-31T21:07:22.671Z,22.57
2018-12-31T21:09:53.192Z,22.00
2018-12-31T21:12:22.694Z,23.97
2018-12-31T21:14:52.153Z,24.47
2018-12-31T21:17:21.608Z,23.57
2018-12-31T21:19:51.091Z,24.97
2018-12-31T21:22:20.538Z,28.27
2018-12-31T21:24:49.983Z,26.83
2018-12-31T21:27:19.487Z,26.27
2018-12-31T21:29:49.262Z,28.80
2018-12-31T21:32:21.264Z,28.83
2018-12-31T21:34:51.579Z,28.30
2018-12-31T21:37:21.092Z,27.97
2018-12-31T21:39:50.586Z,28.87
2018-12-31T21:42:22.242Z,24.77
2018-12-31T21:44:51.614Z,19.87
2018-12-31T21:47:21.174Z,19.70
2018-12-31T21:49:50.689Z,22.67
2018-12-31T21:52:20.103Z,19.67
2018-12-31T21:54:49.561Z,21.37
2018-12-31T21:57:19.003Z,22.63
2018-12-31T21:59:48.500Z,21.53
2018-12-31T22:02:17.932Z,22.00
2018-12-31T22:04:47.394Z,26.20
2018-12-31T22:07:16.839Z,27.00
2018-12-31T22:09:46.252Z,24.77
2018-12-31T22:12:15.769Z,24.03
2018-12-31T22:14:45.267Z,24.93
2018-12-31T22:17:14.784Z,24.97
2018-12-31T22:19:44.434Z,28.13
2018-12-31T22:22:13.864Z,25.20
2018-12-31T22:24:43.454Z,59.90
2018-12-31T22:27:12.909Z,26.27
2018-12-31T22:29:42.373Z,29.10
2018-12-31T22:32:11.872Z,30.40
2018-12-31T22:34:41.356Z,25.33
2018-12-31T22:37:10.939Z,26.03
2018-12-31T22:39:40.437Z,26.10
2018-12-31T22:42:09.919Z,27.60
2018-12-31T22:44:39.420Z,22.33
2018-12-31T22:47:08.885Z,24.17
2018-12-31T22:49:38.436Z,22.67
2018-12-31T22:52:07.910Z,24.50
2018-12-31T22:54:37.412Z,24.53
2018-12-31T22:57:06.860Z,24.97
2018-12-31T22:59:36.326Z,24.53
2018-12-31T23:02:06.081Z,23.47
2018-12-31T23:04:35.560Z,23.93
2018-12-31T23:07:07.274Z,27.67
2018-12-31T23:09:41.179Z,61.27
2018-12-31T23:12:08.185Z,44.37
2018-12-31T23:14:37.721Z,42.40
2018-12-31T23:17:09.414Z,46.90
2018-12-31T23:19:41.896Z,57.93
2018-12-31T23:22:10.149Z,65.17
2018-12-31T23:24:40.018Z,63.67
2018-12-31T23:27:10.361Z,56.20
2018-12-31T23:29:40.281Z,61.43
2018-12-31T23:32:09.763Z,65.20
2018-12-31T23:34:39.220Z,52.67
2018-12-31T23:37:08.692Z,53.50
2018-12-31T23:39:38.187Z,43.97
2018-12-31T23:42:07.619Z,43.80
2018-12-31T23:44:37.145Z,33.10
2018-12-31T23:47:06.592Z,30.87
2018-12-31T23:49:36.000Z,27.10
2018-12-31T23:52:05.493Z,29.30
2018-12-31T23:54:35.061Z,28.77
2018-12-31T23:57:04.549Z,30.40
2018-12-31T23:59:33.958Z,28.40
